createdAt,value
2023-02-20T00:01:03.621Z,7.16
2023-02-20T00:03:31.384Z,7.19
2023-02-20T00:05:58.473Z,7.11
2023-02-20T00:08:25.443Z,7.32
2023-02-20T00:10:52.485Z,7.22
2023-02-20T00:13:19.465Z,7.23
2023-02-20T00:15:46.525Z,7.26
2023-02-20T00:18:13.547Z,7.25
2023-02-20T00:20:40.535Z,7.22
2023-02-20T00:23:07.532Z,7.24
2023-02-20T00:25:34.522Z,7.22
2023-02-20T00:28:01.472Z,7.32
2023-02-20T00:30:28.583Z,7.30
2023-02-20T00:32:57.299Z,7.34
2023-02-20T00:35:26.566Z,7.33
2023-02-20T00:37:55.192Z,7.27
2023-02-20T00:40:24.929Z,7.25
2023-02-20T00:42:52.162Z,7.28
2023-02-20T00:45:19.733Z,7.41
2023-02-20T00:47:47.077Z,7.35
2023-02-20T00:50:17.549Z,7.32
2023-02-20T00:52:44.560Z,7.32
2023-02-20T00:55:12.135Z,7.39
2023-02-20T00:57:39.363Z,7.30
2023-02-20T01:00:16.719Z,7.22
2023-02-20T01:02:43.805Z,7.26
2023-02-20T01:05:10.919Z,7.23
2023-02-20T01:07:37.891Z,7.18
2023-02-20T01:10:05.808Z,7.29
2023-02-20T01:12:32.832Z,7.31
2023-02-20T01:14:59.799Z,7.28
2023-02-20T01:17:26.816Z,7.22
2023-02-20T01:19:55.444Z,7.27
2023-02-20T01:22:23.075Z,7.22
2023-02-20T01:24:50.970Z,7.22
2023-02-20T01:27:18.011Z,7.16
2023-02-20T01:29:45.032Z,7.13
2023-02-20T01:32:13.432Z,7.13
2023-02-20T01:34:40.689Z,7.18
2023-02-20T01:37:07.715Z,7.16
2023-02-20T01:39:34.657Z,7.20
2023-02-20T01:42:05.851Z,7.12
2023-02-20T01:44:36.686Z,7.14
2023-02-20T01:47:16.139Z,7.18
2023-02-20T01:49:57.743Z,7.18
2023-02-20T01:52:29.909Z,7.10
2023-02-20T01:55:09.995Z,7.06
2023-02-20T01:57:41.047Z,7.05
2023-02-20T02:00:14.338Z,7.01
2023-02-20T02:02:46.353Z,7.01
2023-02-20T02:05:14.060Z,7.09
2023-02-20T02:07:41.396Z,7.03
2023-02-20T02:10:20.785Z,7.05
2023-02-20T02:12:51.385Z,7.03
2023-02-20T02:15:21.887Z,7.10
2023-02-20T02:18:02.540Z,7.03
2023-02-20T02:21:09.983Z,7.07
2023-02-20T02:24:09.464Z,7.06
2023-02-20T02:27:10.112Z,7.10
2023-02-20T02:30:00.269Z,7.04
2023-02-20T02:32:57.757Z,7.10
2023-02-20T02:36:18.601Z,7.18
2023-02-20T02:39:10.737Z,7.13
2023-02-20T02:41:55.506Z,7.21
2023-02-20T02:45:02.976Z,7.15
2023-02-20T02:47:40.712Z,7.13
2023-02-20T02:50:39.829Z,7.16
2023-02-20T02:53:10.396Z,7.19
2023-02-20T02:55:37.789Z,7.15
2023-02-20T02:58:05.988Z,7.15
2023-02-20T03:01:03.144Z,7.22
2023-02-20T03:03:37.503Z,7.21
2023-02-20T03:06:17.720Z,7.13
2023-02-20T03:08:52.843Z,7.20
2023-02-20T03:11:22.179Z,7.22
2023-02-20T03:14:26.562Z,7.25
2023-02-20T03:17:33.111Z,7.23
2023-02-20T03:20:07.125Z,7.26
2023-02-20T03:22:55.620Z,7.24
2023-02-20T03:25:36.595Z,7.27
2023-02-20T03:28:13.361Z,7.34
2023-02-20T03:31:08.922Z,7.31
2023-02-20T03:34:02.408Z,7.36
2023-02-20T03:37:18.196Z,7.45
2023-02-20T03:40:10.719Z,7.38
2023-02-20T03:43:00.804Z,7.43
2023-02-20T03:45:30.996Z,7.42
2023-02-20T03:48:03.024Z,7.53
2023-02-20T03:50:48.610Z,7.63
2023-02-20T03:53:16.165Z,7.48
2023-02-20T03:55:43.923Z,7.49
2023-02-20T03:58:14.464Z,7.50
2023-02-20T04:00:46.857Z,7.56
2023-02-20T04:03:20.945Z,7.56
2023-02-20T04:05:53.421Z,7.68
2023-02-20T04:08:36.523Z,7.62
2023-02-20T04:11:36.181Z,7.70
2023-02-20T04:14:05.572Z,7.64
2023-02-20T04:16:40.138Z,7.69
2023-02-20T04:19:07.297Z,7.71
2023-02-20T04:21:43.393Z,7.73
2023-02-20T04:24:18.594Z,7.83
2023-02-20T04:26:46.702Z,7.83
2023-02-20T04:29:13.949Z,7.87
2023-02-20T04:31:40.930Z,7.88
2023-02-20T04:34:08.082Z,7.89
2023-02-20T04:36:35.076Z,7.87
2023-02-20T04:39:02.027Z,7.91
2023-02-20T04:41:29.116Z,7.94
2023-02-20T04:44:16.198Z,7.94
2023-02-20T04:46:43.402Z,7.99
2023-02-20T04:49:10.623Z,8.02
2023-02-20T04:51:37.653Z,8.09
2023-02-20T04:54:05.134Z,8.11
2023-02-20T04:56:32.171Z,8.09
2023-02-20T04:58:59.111Z,8.12
2023-02-20T05:01:26.157Z,8.11
2023-02-20T05:03:53.161Z,8.19
2023-02-20T05:06:20.317Z,8.12
2023-02-20T05:08:49.923Z,8.18
2023-02-20T05:11:17.713Z,8.21
2023-02-20T05:13:44.714Z,8.26
2023-02-20T05:16:13.925Z,8.20
2023-02-20T05:18:41.157Z,8.31
2023-02-20T05:21:26.587Z,8.29
2023-02-20T05:23:53.538Z,8.25
2023-02-20T05:26:22.486Z,8.32
2023-02-20T05:28:49.570Z,8.26
2023-02-20T05:31:17.898Z,8.29
2023-02-20T05:33:45.230Z,8.25
2023-02-20T05:36:12.460Z,8.26
2023-02-20T05:38:41.530Z,8.26
2023-02-20T05:41:08.692Z,8.26
2023-02-20T05:43:35.657Z,8.33
2023-02-20T05:46:02.672Z,8.27
2023-02-20T05:48:29.664Z,8.33
2023-02-20T05:50:56.594Z,8.38
2023-02-20T05:53:24.201Z,8.32
2023-02-20T05:55:51.157Z,8.31
2023-02-20T05:58:18.192Z,8.35
2023-02-20T06:00:45.169Z,8.36
2023-02-20T06:03:14.170Z,8.32
2023-02-20T06:05:41.362Z,8.38
2023-02-20T06:08:08.793Z,8.38
2023-02-20T06:10:36.552Z,8.36
2023-02-20T06:13:03.573Z,8.32
2023-02-20T06:15:30.519Z,8.35
2023-02-20T06:17:57.559Z,8.33
2023-02-20T06:20:24.545Z,8.38
2023-02-20T06:22:51.648Z,8.35
2023-02-20T06:25:18.692Z,8.36
2023-02-20T06:27:45.660Z,8.36
2023-02-20T06:30:13.225Z,8.33
2023-02-20T06:32:40.234Z,8.34
2023-02-20T06:35:18.330Z,8.36
2023-02-20T06:37:45.293Z,8.36
2023-02-20T06:40:17.469Z,8.43
2023-02-20T06:42:44.460Z,8.43
2023-02-20T06:45:21.768Z,8.54
2023-02-20T06:47:48.761Z,10.56
2023-02-20T06:50:19.231Z,11.44
2023-02-20T06:52:46.186Z,12.18
2023-02-20T06:55:16.225Z,12.58
2023-02-20T06:57:43.300Z,12.96
2023-02-20T07:00:11.063Z,13.15
2023-02-20T07:02:38.266Z,13.15
2023-02-20T07:05:06.390Z,13.30
2023-02-20T07:07:33.373Z,13.42
2023-02-20T07:10:01.566Z,13.41
2023-02-20T07:12:33.517Z,13.44
2023-02-20T07:15:00.716Z,13.61
2023-02-20T07:17:27.668Z,13.67
2023-02-20T07:19:54.794Z,13.76
2023-02-20T07:22:21.800Z,13.76
2023-02-20T07:24:53.599Z,13.79
2023-02-20T07:27:21.479Z,13.83
2023-02-20T07:29:50.634Z,13.80
2023-02-20T07:32:20.626Z,13.84
2023-02-20T07:35:01.437Z,13.87
2023-02-20T07:37:30.950Z,13.85
2023-02-20T07:39:57.931Z,13.95
2023-02-20T07:42:24.988Z,13.99
2023-02-20T07:44:51.966Z,13.96
2023-02-20T07:47:18.958Z,13.87
2023-02-20T07:49:45.938Z,13.94
2023-02-20T07:52:12.891Z,13.95
2023-02-20T07:54:39.857Z,14.04
2023-02-20T07:57:07.117Z,14.07
2023-02-20T07:59:34.084Z,14.00
2023-02-20T08:02:01.125Z,14.02
2023-02-20T08:04:28.057Z,14.05
2023-02-20T08:06:55.038Z,14.09
2023-02-20T08:09:22.041Z,13.90
2023-02-20T08:11:49.295Z,14.00
2023-02-20T08:14:16.604Z,14.02
2023-02-20T08:16:43.672Z,14.02
2023-02-20T08:19:10.750Z,13.97
2023-02-20T08:21:37.708Z,13.99
2023-02-20T08:24:05.303Z,13.97
2023-02-20T08:26:34.713Z,13.93
2023-02-20T08:29:01.823Z,13.79
2023-02-20T08:31:32.693Z,13.98
2023-02-20T08:34:00.550Z,13.64
2023-02-20T08:36:27.717Z,13.26
2023-02-20T08:38:55.060Z,13.61
2023-02-20T08:41:22.114Z,13.58
2023-02-20T08:43:49.210Z,13.80
2023-02-20T08:46:16.442Z,13.68
2023-02-20T08:48:44.102Z,13.96
2023-02-20T08:51:12.178Z,14.04
2023-02-20T08:53:39.960Z,14.08
2023-02-20T08:56:08.234Z,13.86
2023-02-20T08:58:35.355Z,14.03
2023-02-20T09:01:02.459Z,13.95
2023-02-20T09:03:29.498Z,14.12
2023-02-20T09:05:56.509Z,13.85
2023-02-20T09:08:23.550Z,14.07
2023-02-20T09:10:50.697Z,14.03
2023-02-20T09:13:18.078Z,14.04
2023-02-20T09:15:45.050Z,14.00
2023-02-20T09:18:14.835Z,14.12
2023-02-20T09:20:42.691Z,14.17
2023-02-20T09:23:09.786Z,14.07
2023-02-20T09:25:37.207Z,13.91
2023-02-20T09:28:04.466Z,14.07
2023-02-20T09:30:31.588Z,14.16
2023-02-20T09:32:58.644Z,14.20
2023-02-20T09:35:29.933Z,14.16
2023-02-20T09:37:57.584Z,14.16
2023-02-20T09:40:28.072Z,14.02
2023-02-20T09:43:26.579Z,14.17
2023-02-20T09:46:14.963Z,14.07
2023-02-20T09:49:26.219Z,14.09
2023-02-20T09:51:58.070Z,14.16
2023-02-20T09:54:40.945Z,13.95
2023-02-20T09:57:16.960Z,13.93
2023-02-20T09:59:55.037Z,14.11
2023-02-20T10:02:35.601Z,14.14
2023-02-20T10:05:14.305Z,13.80
2023-02-20T10:07:42.083Z,13.98
2023-02-20T10:10:28.171Z,13.76
2023-02-20T10:13:16.589Z,14.04
2023-02-20T10:16:18.898Z,14.08
2023-02-20T10:19:05.164Z,14.08
2023-02-20T10:22:11.277Z,14.16
2023-02-20T10:25:10.136Z,14.05
2023-02-20T10:28:18.368Z,14.14
2023-02-20T10:31:09.490Z,14.12
2023-02-20T10:34:16.781Z,13.93
2023-02-20T10:36:54.012Z,14.12
2023-02-20T10:39:23.346Z,14.00
2023-02-20T10:42:15.782Z,14.08
2023-02-20T10:44:52.056Z,13.92
2023-02-20T10:47:36.514Z,14.00
2023-02-20T10:50:34.825Z,13.70
2023-02-20T10:53:36.781Z,13.95
2023-02-20T10:56:31.894Z,13.98
2023-02-20T10:59:30.751Z,13.92
2023-02-20T11:02:01.778Z,14.04
2023-02-20T11:04:41.216Z,14.13
2023-02-20T11:07:15.268Z,13.99
2023-02-20T11:09:42.697Z,14.14
2023-02-20T11:12:32.402Z,14.12
2023-02-20T11:15:09.081Z,14.15
2023-02-20T11:17:40.501Z,14.19
2023-02-20T11:20:33.271Z,13.98
2023-02-20T11:23:02.319Z,14.04
2023-02-20T11:25:37.539Z,14.01
2023-02-20T11:28:40.378Z,14.06
2023-02-20T11:31:08.498Z,14.09
2023-02-20T11:33:45.593Z,14.15
2023-02-20T11:36:23.022Z,14.14
2023-02-20T11:39:14.098Z,14.18
2023-02-20T11:41:41.327Z,14.12
2023-02-20T11:44:11.110Z,13.53
2023-02-20T11:46:38.309Z,13.85
2023-02-20T11:49:29.030Z,13.87
2023-02-20T11:52:17.344Z,13.85
2023-02-20T11:54:46.201Z,13.82
2023-02-20T11:57:16.257Z,13.84
2023-02-20T11:59:48.560Z,14.01
2023-02-20T12:02:28.397Z,14.06
2023-02-20T12:05:12.890Z,14.11
2023-02-20T12:07:52.983Z,14.10
2023-02-20T12:10:33.140Z,14.09
2023-02-20T12:13:00.397Z,14.16
2023-02-20T12:15:29.268Z,14.22
2023-02-20T12:18:11.274Z,13.95
2023-02-20T12:20:48.415Z,13.99
2023-02-20T12:23:35.583Z,14.01
2023-02-20T12:26:17.200Z,14.10
2023-02-20T12:29:10.681Z,13.77
2023-02-20T12:31:40.476Z,13.84
2023-02-20T12:34:30.525Z,13.94
2023-02-20T12:37:16.158Z,14.00
2023-02-20T12:40:24.366Z,14.10
2023-02-20T12:43:08.372Z,14.06
2023-02-20T12:45:59.066Z,14.16
2023-02-20T12:49:31.623Z,14.17
2023-02-20T12:52:06.028Z,14.12
2023-02-20T12:54:59.572Z,14.15
2023-02-20T12:57:49.991Z,14.13
2023-02-20T13:00:41.329Z,14.13
2023-02-20T13:03:17.063Z,14.15
2023-02-20T13:05:47.802Z,14.12
2023-02-20T13:08:37.037Z,14.12
2023-02-20T13:11:16.214Z,14.12
2023-02-20T13:14:13.889Z,14.14
2023-02-20T13:17:17.727Z,14.11
2023-02-20T13:20:07.042Z,14.10
2023-02-20T13:22:34.006Z,14.13
2023-02-20T13:25:43.822Z,14.13
2023-02-20T13:28:22.718Z,14.07
2023-02-20T13:31:22.426Z,14.03
2023-02-20T13:34:05.022Z,13.49
2023-02-20T13:36:51.008Z,13.66
2023-02-20T13:39:21.088Z,13.74
2023-02-20T13:41:54.342Z,13.85
2023-02-20T13:44:39.122Z,13.84
2023-02-20T13:47:22.115Z,13.81
2023-02-20T13:49:52.558Z,13.98
2023-02-20T13:52:44.159Z,13.93
2023-02-20T13:55:11.076Z,13.90
2023-02-20T13:58:02.533Z,13.95
2023-02-20T14:00:55.449Z,13.63
2023-02-20T14:03:28.293Z,13.58
2023-02-20T14:06:05.687Z,13.78
2023-02-20T14:08:33.194Z,13.88
2023-02-20T14:11:12.527Z,13.92
2023-02-20T14:13:44.393Z,13.68
2023-02-20T14:16:29.838Z,13.57
2023-02-20T14:19:05.900Z,13.70
2023-02-20T14:21:35.213Z,13.80
2023-02-20T14:24:27.355Z,13.69
2023-02-20T14:26:56.930Z,13.89
2023-02-20T14:29:34.040Z,14.01
2023-02-20T14:32:04.162Z,14.05
2023-02-20T14:34:56.021Z,14.06
2023-02-20T14:37:30.464Z,14.04
2023-02-20T14:40:43.776Z,14.10
2023-02-20T14:43:20.189Z,14.22
2023-02-20T14:46:03.486Z,14.20
2023-02-20T14:48:34.694Z,14.29
2023-02-20T14:51:24.645Z,14.31
2023-02-20T14:54:23.007Z,14.23
2023-02-20T14:56:53.509Z,14.14
2023-02-20T14:59:30.849Z,14.19
2023-02-20T15:02:33.943Z,14.22
2023-02-20T15:05:10.049Z,14.30
2023-02-20T15:07:40.139Z,14.30
2023-02-20T15:10:36.656Z,14.33
2023-02-20T15:13:18.326Z,14.16
2023-02-20T15:16:25.319Z,14.23
2023-02-20T15:18:52.991Z,14.25
2023-02-20T15:21:38.206Z,14.12
2023-02-20T15:24:29.739Z,14.26
2023-02-20T15:27:19.482Z,14.16
2023-02-20T15:29:47.623Z,14.26
2023-02-20T15:32:25.739Z,14.19
2023-02-20T15:34:57.205Z,14.27
2023-02-20T15:37:43.186Z,14.32
2023-02-20T15:40:27.826Z,14.37
2023-02-20T15:42:58.532Z,14.40
2023-02-20T15:45:28.443Z,14.42
2023-02-20T15:47:56.460Z,14.43
2023-02-20T15:50:26.252Z,14.43
2023-02-20T15:52:53.511Z,14.43
2023-02-20T15:55:23.774Z,14.42
2023-02-20T15:57:56.619Z,14.43
2023-02-20T16:00:26.115Z,12.54
2023-02-20T16:02:54.098Z,11.06
2023-02-20T16:05:21.256Z,10.80
2023-02-20T16:07:48.384Z,10.77
2023-02-20T16:10:19.520Z,10.71
2023-02-20T16:12:48.033Z,10.68
2023-02-20T16:15:18.865Z,10.69
2023-02-20T16:17:45.848Z,10.68
2023-02-20T16:20:25.766Z,10.66
2023-02-20T16:22:52.936Z,10.64
2023-02-20T16:25:22.970Z,10.71
2023-02-20T16:27:54.465Z,10.66
2023-02-20T16:30:34.199Z,10.63
2023-02-20T16:33:08.930Z,10.61
2023-02-20T16:35:35.914Z,10.63
2023-02-20T16:38:02.963Z,10.61
2023-02-20T16:40:29.998Z,10.60
2023-02-20T16:42:56.951Z,10.57
2023-02-20T16:45:24.002Z,10.57
2023-02-20T16:47:54.474Z,10.57
2023-02-20T16:50:26.836Z,10.57
2023-02-20T16:52:55.123Z,10.53
2023-02-20T16:55:25.584Z,10.53
2023-02-20T16:57:53.192Z,10.56
2023-02-20T17:00:27.134Z,10.55
2023-02-20T17:02:54.869Z,10.57
2023-02-20T17:05:37.516Z,10.51
2023-02-20T17:08:06.254Z,10.54
2023-02-20T17:10:33.437Z,10.54
2023-02-20T17:13:00.578Z,10.54
2023-02-20T17:15:39.384Z,10.51
2023-02-20T17:18:06.448Z,10.52
2023-02-20T17:20:37.649Z,10.49
2023-02-20T17:23:05.615Z,10.49
2023-02-20T17:25:34.939Z,10.53
2023-02-20T17:28:02.895Z,10.50
2023-02-20T17:30:30.021Z,10.50
2023-02-20T17:32:57.148Z,10.50
2023-02-20T17:35:24.349Z,10.51
2023-02-20T17:37:51.420Z,10.47
2023-02-20T17:40:18.836Z,10.47
2023-02-20T17:42:45.916Z,10.49
2023-02-20T17:45:14.988Z,10.47
2023-02-20T17:47:42.125Z,10.47
2023-02-20T17:50:09.526Z,10.46
2023-02-20T17:52:37.685Z,10.46
2023-02-20T17:55:06.117Z,10.47
2023-02-20T17:57:33.254Z,10.44
2023-02-20T18:00:00.366Z,10.46
2023-02-20T18:02:27.575Z,10.46
2023-02-20T18:04:54.673Z,10.43
2023-02-20T18:07:21.875Z,10.43
2023-02-20T18:09:48.984Z,10.41
2023-02-20T18:12:16.486Z,10.45
2023-02-20T18:14:45.660Z,10.40
2023-02-20T18:17:13.267Z,10.40
2023-02-20T18:19:40.255Z,10.43
2023-02-20T18:22:07.461Z,10.44
2023-02-20T18:24:34.641Z,10.38
2023-02-20T18:27:01.882Z,10.39
2023-02-20T18:29:30.145Z,10.41
2023-02-20T18:31:57.705Z,10.42
2023-02-20T18:34:27.280Z,10.43
2023-02-20T18:36:55.093Z,10.42
2023-02-20T18:39:24.900Z,10.43
2023-02-20T18:41:56.851Z,10.41
2023-02-20T18:44:24.375Z,10.40
2023-02-20T18:46:52.421Z,10.40
2023-02-20T18:49:22.088Z,10.38
2023-02-20T18:51:49.379Z,10.38
2023-02-20T18:54:20.325Z,10.36
2023-02-20T18:56:51.489Z,10.34
2023-02-20T18:59:19.611Z,10.34
2023-02-20T19:01:46.858Z,10.37
2023-02-20T19:04:14.979Z,10.35
2023-02-20T19:06:44.490Z,10.33
2023-02-20T19:09:24.184Z,10.33
2023-02-20T19:11:56.103Z,10.29
2023-02-20T19:14:28.013Z,10.33
2023-02-20T19:16:59.516Z,10.33
2023-02-20T19:19:30.445Z,10.30
2023-02-20T19:21:58.304Z,10.29
2023-02-20T19:24:25.620Z,10.27
2023-02-20T19:26:53.223Z,10.27
2023-02-20T19:29:20.515Z,10.28
2023-02-20T19:31:47.777Z,10.25
2023-02-20T19:34:15.802Z,10.21
2023-02-20T19:36:43.718Z,10.23
2023-02-20T19:39:12.618Z,10.23
2023-02-20T19:41:39.820Z,10.22
2023-02-20T19:44:10.326Z,10.21
2023-02-20T19:46:39.041Z,10.19
2023-02-20T19:49:09.955Z,10.22
2023-02-20T19:51:37.204Z,10.21
2023-02-20T19:54:04.521Z,10.20
2023-02-20T19:56:31.624Z,10.21
2023-02-20T19:58:58.740Z,10.20
2023-02-20T20:01:25.828Z,10.15
2023-02-20T20:03:52.984Z,10.17
2023-02-20T20:06:24.914Z,10.18
2023-02-20T20:09:10.504Z,10.19
2023-02-20T20:11:39.219Z,10.16
2023-02-20T20:14:06.479Z,10.19
2023-02-20T20:16:37.361Z,10.16
2023-02-20T20:19:05.934Z,10.16
2023-02-20T20:21:34.670Z,10.12
2023-02-20T20:24:01.693Z,10.14
2023-02-20T20:26:32.460Z,10.11
2023-02-20T20:28:59.930Z,10.12
2023-02-20T20:31:32.701Z,10.13
2023-02-20T20:34:00.350Z,10.10
2023-02-20T20:36:27.308Z,10.08
2023-02-20T20:38:54.243Z,10.10
2023-02-20T20:41:21.360Z,10.06
2023-02-20T20:43:48.408Z,10.10
2023-02-20T20:46:16.997Z,10.08
2023-02-20T20:48:45.462Z,10.07
2023-02-20T20:51:17.585Z,10.08
2023-02-20T20:53:45.768Z,10.05
2023-02-20T20:56:13.924Z,10.07
2023-02-20T20:58:40.883Z,10.07
2023-02-20T21:01:07.894Z,10.04
2023-02-20T21:03:34.904Z,10.06
2023-02-20T21:06:02.087Z,10.06
2023-02-20T21:08:30.564Z,10.05
2023-02-20T21:10:57.516Z,10.05
2023-02-20T21:13:24.567Z,10.08
2023-02-20T21:15:51.565Z,10.05
2023-02-20T21:18:18.574Z,9.98
2023-02-20T21:20:45.674Z,10.03
2023-02-20T21:23:12.688Z,9.99
2023-02-20T21:25:41.973Z,9.99
2023-02-20T21:28:09.025Z,9.98
2023-02-20T21:30:36.143Z,10.02
2023-02-20T21:33:03.373Z,9.99
2023-02-20T21:35:30.319Z,9.99
2023-02-20T21:37:57.697Z,9.98
2023-02-20T21:40:24.992Z,9.94
2023-02-20T21:43:10.714Z,10.00
2023-02-20T21:45:37.734Z,9.94
2023-02-20T21:48:05.679Z,9.93
2023-02-20T21:50:32.688Z,9.91
2023-02-20T21:53:00.154Z,9.96
2023-02-20T21:55:27.156Z,9.89
2023-02-20T21:57:54.516Z,9.90
2023-02-20T22:00:21.623Z,9.88
2023-02-20T22:02:48.543Z,9.85
2023-02-20T22:05:15.599Z,9.87
2023-02-20T22:08:01.320Z,9.89
2023-02-20T22:10:46.817Z,9.83
2023-02-20T22:13:32.700Z,9.82
2023-02-20T22:16:18.465Z,9.83
2023-02-20T22:19:04.088Z,9.83
2023-02-20T22:21:50.202Z,9.87
2023-02-20T22:24:39.444Z,9.86
2023-02-20T22:27:27.971Z,9.82
2023-02-20T22:30:14.174Z,9.84
2023-02-20T22:32:59.746Z,9.82
2023-02-20T22:35:45.549Z,9.82
2023-02-20T22:38:31.362Z,9.80
2023-02-20T22:41:17.321Z,9.81
2023-02-20T22:44:03.131Z,9.81
2023-02-20T22:46:48.829Z,9.81
2023-02-20T22:49:34.322Z,9.79
2023-02-20T22:52:20.023Z,9.78
2023-02-20T22:55:06.563Z,9.79
2023-02-20T22:57:53.288Z,9.79
2023-02-20T23:00:39.186Z,9.79
2023-02-20T23:03:25.306Z,9.75
2023-02-20T23:06:17.915Z,9.78
2023-02-20T23:09:05.265Z,9.73
2023-02-20T23:11:55.464Z,9.76
2023-02-20T23:14:42.038Z,9.75
2023-02-20T23:17:37.426Z,9.75
2023-02-20T23:20:32.661Z,9.75
2023-02-20T23:23:18.789Z,9.71
2023-02-20T23:26:05.055Z,9.70
2023-02-20T23:28:50.805Z,9.73
2023-02-20T23:31:37.277Z,9.68
2023-02-20T23:34:23.372Z,9.74
2023-02-20T23:37:11.252Z,9.69
2023-02-20T23:39:57.198Z,9.72
2023-02-20T23:42:42.717Z,9.65
2023-02-20T23:45:28.835Z,9.68
2023-02-20T23:48:14.410Z,9.67
2023-02-20T23:51:00.095Z,9.66
2023-02-20T23:53:45.894Z,9.68
2023-02-20T23:56:32.069Z,9.67
2023-02-20T23:59:17.787Z,9.67
